createdAt,value
2022-07-25T00:01:22.864Z,4.43
2022-07-25T00:03:51.846Z,4.20
2022-07-25T00:06:21.291Z,3.88
2022-07-25T00:08:49.367Z,4.18
2022-07-25T00:11:17.520Z,3.60
2022-07-25T00:13:45.597Z,3.40
2022-07-25T00:16:13.767Z,3.78
2022-07-25T00:18:42.150Z,3.97
2022-07-25T00:21:10.357Z,4.07
2022-07-25T00:23:39.775Z,3.55
2022-07-25T00:26:07.807Z,3.80
2022-07-25T00:28:35.788Z,3.22
2022-07-25T00:31:03.945Z,4.38
2022-07-25T00:33:32.093Z,3.90
2022-07-25T00:36:00.450Z,4.13
2022-07-25T00:38:28.443Z,3.58
2022-07-25T00:41:00.681Z,3.67
2022-07-25T00:45:58.693Z,3.90
2022-07-25T00:48:27.881Z,3.83
2022-07-25T00:50:56.451Z,3.50
2022-07-25T00:53:25.120Z,3.80
2022-07-25T00:55:53.799Z,4.10
2022-07-25T00:58:23.257Z,3.80
2022-07-25T01:00:51.293Z,3.70
2022-07-25T01:03:19.862Z,3.45
2022-07-25T01:05:53.775Z,4.03
2022-07-25T01:08:23.352Z,3.55
2022-07-25T01:10:51.518Z,3.95
2022-07-25T01:13:19.583Z,3.10
2022-07-25T01:15:50.412Z,3.50
2022-07-25T01:18:19.034Z,3.80
2022-07-25T01:20:48.670Z,3.83
2022-07-25T01:23:16.761Z,4.03
2022-07-25T01:25:45.037Z,3.63
2022-07-25T01:28:13.334Z,3.45
2022-07-25T01:30:41.755Z,3.55
2022-07-25T01:33:09.870Z,3.75
2022-07-25T01:35:43.008Z,4.63
2022-07-25T01:38:14.148Z,3.83
2022-07-25T01:40:42.944Z,4.20
2022-07-25T01:43:11.287Z,3.85
2022-07-25T01:45:39.560Z,3.97
2022-07-25T01:48:08.062Z,3.78
2022-07-25T01:50:36.262Z,4.38
2022-07-25T01:53:04.860Z,4.00
2022-07-25T01:55:34.284Z,4.13
2022-07-25T01:58:02.328Z,4.07
2022-07-25T02:00:30.799Z,3.92
2022-07-25T02:03:12.657Z,4.13
2022-07-25T02:05:40.742Z,4.65
2022-07-25T02:08:08.768Z,3.92
2022-07-25T02:10:40.812Z,4.18
2022-07-25T02:13:08.863Z,4.38
2022-07-25T02:15:37.471Z,4.20
2022-07-25T02:18:05.657Z,4.22
2022-07-25T02:20:33.692Z,5.18
2022-07-25T02:23:02.198Z,4.20
2022-07-25T02:25:30.313Z,4.32
2022-07-25T02:28:00.300Z,4.25
2022-07-25T02:30:29.628Z,4.55
2022-07-25T02:32:57.762Z,4.10
2022-07-25T02:35:25.787Z,4.55
2022-07-25T02:37:57.981Z,5.15
2022-07-25T02:40:26.266Z,3.90
2022-07-25T02:42:54.365Z,4.30
2022-07-25T02:45:23.770Z,4.35
2022-07-25T02:47:51.847Z,4.28
2022-07-25T02:50:19.867Z,4.75
2022-07-25T02:52:47.954Z,4.55
2022-07-25T02:55:15.940Z,3.92
2022-07-25T02:57:44.104Z,4.88
2022-07-25T03:00:13.544Z,4.78
2022-07-25T03:02:45.835Z,4.68
2022-07-25T03:07:44.011Z,4.22
2022-07-25T03:10:14.354Z,4.50
2022-07-25T03:12:44.183Z,4.97
2022-07-25T03:15:13.640Z,5.30
2022-07-25T03:17:43.232Z,5.00
2022-07-25T03:20:12.002Z,4.78
2022-07-25T03:22:40.336Z,4.53
2022-07-25T03:25:15.616Z,5.00
2022-07-25T03:27:52.158Z,4.68
2022-07-25T03:30:20.370Z,4.68
2022-07-25T03:32:50.433Z,5.18
2022-07-25T03:35:21.576Z,4.70
2022-07-25T03:37:49.718Z,5.03
2022-07-25T03:40:19.226Z,4.93
2022-07-25T03:42:47.207Z,4.78
2022-07-25T03:45:15.390Z,5.00
2022-07-25T03:47:43.404Z,5.10
2022-07-25T03:50:13.039Z,4.60
2022-07-25T03:52:41.143Z,5.57
2022-07-25T03:55:15.516Z,5.40
2022-07-25T03:57:43.570Z,6.05
2022-07-25T04:00:13.257Z,5.10
2022-07-25T04:02:41.381Z,5.13
2022-07-25T04:05:10.606Z,5.43
2022-07-25T04:07:40.018Z,5.15
2022-07-25T04:10:11.638Z,4.85
2022-07-25T04:12:40.073Z,5.10
2022-07-25T04:15:09.138Z,5.03
2022-07-25T04:17:39.500Z,5.72
2022-07-25T04:20:08.757Z,5.05
2022-07-25T04:22:37.020Z,4.68
2022-07-25T04:25:07.492Z,5.10
2022-07-25T04:27:35.589Z,5.30
2022-07-25T04:30:03.901Z,5.13
2022-07-25T04:32:31.947Z,5.40
2022-07-25T04:35:00.113Z,4.80
2022-07-25T04:37:28.250Z,5.00
2022-07-25T04:39:56.294Z,4.78
2022-07-25T04:42:25.703Z,4.75
2022-07-25T04:44:54.226Z,4.97
2022-07-25T04:47:25.263Z,5.47
2022-07-25T04:49:53.578Z,4.82
2022-07-25T04:52:21.694Z,5.45
2022-07-25T04:54:49.744Z,5.30
2022-07-25T04:57:17.974Z,5.82
2022-07-25T04:59:47.512Z,5.63
2022-07-25T05:02:15.661Z,5.57
2022-07-25T05:04:45.554Z,5.47
2022-07-25T05:07:15.107Z,5.95
2022-07-25T05:09:43.242Z,6.00
2022-07-25T05:12:11.534Z,5.15
2022-07-25T05:14:39.612Z,5.38
2022-07-25T05:17:09.255Z,5.07
2022-07-25T05:19:37.240Z,5.43
2022-07-25T05:22:05.604Z,4.63
2022-07-25T05:24:34.985Z,4.93
2022-07-25T05:27:03.204Z,5.88
2022-07-25T05:29:31.786Z,4.82
2022-07-25T05:32:00.193Z,5.20
2022-07-25T05:34:29.674Z,4.72
2022-07-25T05:36:58.614Z,5.15
2022-07-25T05:39:26.640Z,4.85
2022-07-25T05:41:55.854Z,5.30
2022-07-25T05:44:23.869Z,4.68
2022-07-25T05:46:51.998Z,4.57
2022-07-25T05:49:20.234Z,4.43
2022-07-25T05:51:49.771Z,4.40
2022-07-25T05:54:17.791Z,5.25
2022-07-25T05:56:45.891Z,4.70
2022-07-25T05:59:13.925Z,5.07
2022-07-25T06:01:42.001Z,4.70
2022-07-25T06:04:10.290Z,5.90
2022-07-25T06:06:38.365Z,5.53
2022-07-25T06:09:08.576Z,5.13
2022-07-25T06:11:37.151Z,5.40
2022-07-25T06:14:22.757Z,4.93
2022-07-25T06:16:50.967Z,5.38
2022-07-25T06:19:19.506Z,4.90
2022-07-25T06:21:47.561Z,4.78
2022-07-25T06:24:16.927Z,5.75
2022-07-25T06:26:45.605Z,5.50
2022-07-25T06:29:13.663Z,5.75
2022-07-25T06:31:41.787Z,5.20
2022-07-25T06:34:14.286Z,5.38
2022-07-25T06:36:42.285Z,6.18
2022-07-25T06:39:10.426Z,5.88
2022-07-25T06:41:40.925Z,5.03
2022-07-25T06:44:10.575Z,5.18
2022-07-25T06:46:38.735Z,5.85
2022-07-25T06:49:07.032Z,6.07
2022-07-25T06:51:35.791Z,5.22
2022-07-25T06:54:04.336Z,5.40
2022-07-25T06:56:33.172Z,5.35
2022-07-25T06:59:02.605Z,5.57
2022-07-25T07:01:30.710Z,6.05
2022-07-25T07:03:58.780Z,6.47
2022-07-25T07:06:26.834Z,6.03
2022-07-25T07:08:57.142Z,5.50
2022-07-25T07:11:25.337Z,6.00
2022-07-25T07:13:53.385Z,5.93
2022-07-25T07:16:24.092Z,5.93
2022-07-25T07:18:52.146Z,5.55
2022-07-25T07:21:21.421Z,5.70
2022-07-25T07:23:53.287Z,5.65
2022-07-25T07:28:49.804Z,5.75
2022-07-25T07:31:18.657Z,5.40
2022-07-25T07:33:48.237Z,5.55
2022-07-25T07:36:16.399Z,5.82
2022-07-25T07:38:45.290Z,5.53
2022-07-25T07:41:13.822Z,5.82
2022-07-25T07:43:41.894Z,5.57
2022-07-25T07:46:10.037Z,6.38
2022-07-25T07:48:38.689Z,6.30
2022-07-25T07:51:08.174Z,6.07
2022-07-25T07:53:53.783Z,6.05
2022-07-25T07:56:21.835Z,5.85
2022-07-25T07:58:50.493Z,5.43
2022-07-25T08:01:19.094Z,5.70
2022-07-25T08:03:47.168Z,5.82
2022-07-25T08:06:16.656Z,5.93
2022-07-25T08:08:44.709Z,5.78
2022-07-25T08:11:12.765Z,5.50
2022-07-25T08:13:40.953Z,5.75
2022-07-25T08:16:11.885Z,5.57
2022-07-25T08:18:40.595Z,5.07
2022-07-25T08:21:09.085Z,4.57
2022-07-25T08:23:39.331Z,5.85
2022-07-25T08:26:07.876Z,5.00
2022-07-25T08:28:36.030Z,5.38
2022-07-25T08:31:04.244Z,4.88
2022-07-25T08:33:32.645Z,5.65
2022-07-25T08:36:01.223Z,5.80
2022-07-25T08:38:29.788Z,4.45
2022-07-25T08:40:59.824Z,5.10
2022-07-25T08:43:29.265Z,5.10
2022-07-25T08:45:57.381Z,4.70
2022-07-25T08:48:27.008Z,4.90
2022-07-25T08:50:57.395Z,4.80
2022-07-25T08:53:34.870Z,4.90
2022-07-25T08:56:11.641Z,4.80
2022-07-25T08:58:44.106Z,4.65
2022-07-25T09:01:13.292Z,4.25
2022-07-25T09:03:42.873Z,4.88
2022-07-25T09:06:19.024Z,4.57
2022-07-25T09:08:57.767Z,4.25
2022-07-25T09:11:35.419Z,4.25
2022-07-25T09:14:06.193Z,4.57
2022-07-25T09:19:11.951Z,4.30
2022-07-25T09:21:44.192Z,4.80
2022-07-25T09:24:16.932Z,4.40
2022-07-25T09:26:52.230Z,4.28
2022-07-25T09:29:22.824Z,4.32
2022-07-25T09:31:51.404Z,3.97
2022-07-25T09:34:31.955Z,4.32
2022-07-25T09:37:00.074Z,4.07
2022-07-25T09:39:45.019Z,5.07
2022-07-25T09:42:21.830Z,4.07
2022-07-25T09:45:01.362Z,3.83
2022-07-25T09:47:30.532Z,4.50
2022-07-25T09:49:58.789Z,4.50
2022-07-25T09:52:27.317Z,5.35
2022-07-25T09:57:40.480Z,4.00
2022-07-25T10:00:10.314Z,4.53
2022-07-25T10:02:46.670Z,4.15
2022-07-25T10:05:19.472Z,4.53
2022-07-25T10:07:50.273Z,4.60
2022-07-25T10:10:29.770Z,3.47
2022-07-25T10:13:09.958Z,4.10
2022-07-25T10:15:49.813Z,3.92
2022-07-25T10:18:20.989Z,4.53
2022-07-25T10:20:50.413Z,4.90
2022-07-25T10:23:19.966Z,3.88
2022-07-25T10:25:49.259Z,3.83
2022-07-25T10:28:20.948Z,4.75
2022-07-25T10:30:58.344Z,4.13
2022-07-25T10:33:26.406Z,4.03
2022-07-25T10:35:54.521Z,4.68
2022-07-25T10:38:26.151Z,4.10
2022-07-25T10:40:54.438Z,3.65
2022-07-25T10:43:25.555Z,3.65
2022-07-25T10:45:55.075Z,4.28
2022-07-25T10:48:26.553Z,4.13
2022-07-25T10:50:59.163Z,4.07
2022-07-25T10:53:34.340Z,4.70
2022-07-25T10:56:07.997Z,4.60
2022-07-25T10:58:53.213Z,4.47
2022-07-25T11:01:23.847Z,3.53
2022-07-25T11:03:52.199Z,4.00
2022-07-25T11:06:31.818Z,4.07
2022-07-25T11:09:01.196Z,3.67
2022-07-25T11:11:40.540Z,4.30
2022-07-25T11:14:17.852Z,3.80
2022-07-25T11:16:47.028Z,3.88
2022-07-25T11:19:20.462Z,4.70
2022-07-25T11:21:49.923Z,5.28
2022-07-25T11:24:18.293Z,3.47
2022-07-25T11:26:48.287Z,4.07
2022-07-25T11:29:23.778Z,4.28
2022-07-25T11:31:59.905Z,4.78
2022-07-25T11:34:30.682Z,4.13
2022-07-25T11:37:05.536Z,3.97
2022-07-25T11:39:35.632Z,4.72
2022-07-25T11:42:05.275Z,3.70
2022-07-25T11:44:41.883Z,4.03
2022-07-25T11:47:24.784Z,3.83
2022-07-25T11:49:54.238Z,3.97
2022-07-25T11:52:24.713Z,4.03
2022-07-25T11:54:54.399Z,4.68
2022-07-25T11:57:23.630Z,3.92
2022-07-25T11:59:53.293Z,3.80
2022-07-25T12:02:25.997Z,4.32
2022-07-25T12:04:58.387Z,3.70
2022-07-25T12:07:44.992Z,3.80
2022-07-25T12:10:16.616Z,4.10
2022-07-25T12:12:46.367Z,3.63
2022-07-25T12:15:17.194Z,3.38
2022-07-25T12:17:45.351Z,3.90
2022-07-25T12:20:17.070Z,3.70
2022-07-25T12:22:45.682Z,4.50
2022-07-25T12:25:16.255Z,4.53
2022-07-25T12:27:44.557Z,3.75
2022-07-25T12:30:14.634Z,4.55
2022-07-25T12:32:47.776Z,4.28
2022-07-25T12:35:16.203Z,4.47
2022-07-25T12:37:47.077Z,3.17
2022-07-25T12:40:16.434Z,3.50
2022-07-25T12:42:45.404Z,3.03
2022-07-25T12:45:14.785Z,3.20
2022-07-25T12:47:45.397Z,3.33
2022-07-25T12:50:17.942Z,3.60
2022-07-25T12:52:46.804Z,9.75
2022-07-25T12:55:17.611Z,3.63
2022-07-25T12:57:46.483Z,3.28
2022-07-25T13:00:17.380Z,2.67
2022-07-25T13:02:48.858Z,2.83
2022-07-25T13:07:44.952Z,2.75
2022-07-25T13:10:13.285Z,2.80
2022-07-25T13:12:41.342Z,3.33
2022-07-25T13:15:10.005Z,3.67
2022-07-25T13:17:38.356Z,3.00
2022-07-25T13:20:09.380Z,2.67
2022-07-25T13:22:37.588Z,3.03
2022-07-25T13:25:06.288Z,2.97
2022-07-25T13:27:34.523Z,2.95
2022-07-25T13:30:02.503Z,3.28
2022-07-25T13:32:31.779Z,3.70
2022-07-25T13:34:59.792Z,3.17
2022-07-25T13:37:32.160Z,3.40
2022-07-25T13:40:00.220Z,3.75
2022-07-25T13:42:31.059Z,3.85
2022-07-25T13:44:59.145Z,3.50
2022-07-25T13:47:30.428Z,4.22
2022-07-25T13:49:58.578Z,4.85
2022-07-25T13:52:30.994Z,3.55
2022-07-25T13:54:59.107Z,4.68
2022-07-25T13:57:27.146Z,3.58
2022-07-25T13:59:57.582Z,3.50
2022-07-25T14:02:25.632Z,3.53
2022-07-25T14:04:54.174Z,3.35
2022-07-25T14:07:25.242Z,3.60
2022-07-25T14:09:54.675Z,4.10
2022-07-25T14:12:24.513Z,3.70
2022-07-25T14:14:52.568Z,3.80
2022-07-25T14:17:25.749Z,3.10
2022-07-25T14:19:56.343Z,3.65
2022-07-25T14:22:24.327Z,3.67
2022-07-25T14:24:52.281Z,4.07
2022-07-25T14:27:21.682Z,3.88
2022-07-25T14:29:49.834Z,4.88
2022-07-25T14:32:17.884Z,3.28
2022-07-25T14:34:47.902Z,3.03
2022-07-25T14:37:17.874Z,3.92
2022-07-25T14:39:45.888Z,3.10
2022-07-25T14:42:16.956Z,3.50
2022-07-25T14:44:46.361Z,4.43
2022-07-25T14:47:16.749Z,3.25
2022-07-25T14:49:44.983Z,3.78
2022-07-25T14:52:13.153Z,3.58
2022-07-25T14:54:41.502Z,4.10
2022-07-25T14:57:10.602Z,3.67
2022-07-25T14:59:38.713Z,3.67
2022-07-25T15:02:08.905Z,3.97
2022-07-25T15:04:36.954Z,3.47
2022-07-25T15:07:05.139Z,4.05
2022-07-25T15:09:33.172Z,3.83
2022-07-25T15:12:02.438Z,3.58
2022-07-25T15:14:30.906Z,3.63
2022-07-25T15:16:59.071Z,3.95
2022-07-25T15:19:31.414Z,3.72
2022-07-25T15:21:59.545Z,3.30
2022-07-25T15:24:29.337Z,3.78
2022-07-25T15:27:00.587Z,3.65
2022-07-25T15:29:30.426Z,3.95
2022-07-25T15:31:58.445Z,3.85
2022-07-25T15:34:27.906Z,3.63
2022-07-25T15:36:58.119Z,3.58
2022-07-25T15:39:26.161Z,3.85
2022-07-25T15:41:55.421Z,3.78
2022-07-25T15:44:25.467Z,3.50
2022-07-25T15:46:53.700Z,3.45
2022-07-25T15:49:22.632Z,3.58
2022-07-25T15:51:52.082Z,3.47
2022-07-25T15:54:20.022Z,3.78
2022-07-25T15:56:50.153Z,3.42
2022-07-25T15:59:18.140Z,3.10
2022-07-25T16:01:46.595Z,3.67
2022-07-25T16:04:14.680Z,3.40
2022-07-25T16:06:42.933Z,15.93
2022-07-25T16:09:12.939Z,4.57
2022-07-25T16:11:40.988Z,3.63
2022-07-25T16:14:09.950Z,3.63
2022-07-25T16:16:38.341Z,3.28
2022-07-25T16:19:11.025Z,3.67
2022-07-25T16:21:39.921Z,3.30
2022-07-25T16:24:09.427Z,3.33
2022-07-25T16:26:42.220Z,3.28
2022-07-25T16:29:12.859Z,3.67
2022-07-25T16:31:41.295Z,2.85
2022-07-25T16:34:09.354Z,2.78
2022-07-25T16:36:37.595Z,3.10
2022-07-25T16:39:08.918Z,3.40
2022-07-25T16:41:38.377Z,2.67
2022-07-25T16:44:07.996Z,2.42
2022-07-25T16:46:36.575Z,3.03
2022-07-25T16:49:07.230Z,2.97
2022-07-25T16:51:37.257Z,2.90
2022-07-25T16:54:05.834Z,2.92
2022-07-25T16:56:37.110Z,3.22
2022-07-25T16:59:05.656Z,2.75
2022-07-25T17:01:36.005Z,2.25
2022-07-25T17:04:04.824Z,2.47
2022-07-25T17:06:32.895Z,2.70
2022-07-25T17:09:01.098Z,2.65
2022-07-25T17:11:30.085Z,2.22
2022-07-25T17:13:59.549Z,2.35
2022-07-25T17:16:30.697Z,1.80
2022-07-25T17:19:00.221Z,2.27
2022-07-25T17:21:28.285Z,2.00
2022-07-25T17:23:56.550Z,2.08
2022-07-25T17:26:24.638Z,1.95
2022-07-25T17:28:53.912Z,1.50
2022-07-25T17:31:27.118Z,1.23
2022-07-25T17:33:55.199Z,1.35
2022-07-25T17:36:24.639Z,1.52
2022-07-25T17:38:53.020Z,1.67
2022-07-25T17:41:21.107Z,1.63
2022-07-25T17:43:49.427Z,1.42
2022-07-25T17:46:19.774Z,1.35
2022-07-25T17:48:47.912Z,1.02
2022-07-25T17:51:17.948Z,1.15
2022-07-25T17:53:47.334Z,1.67
2022-07-25T17:56:18.440Z,1.20
2022-07-25T17:58:47.839Z,1.60
2022-07-25T18:01:16.014Z,1.58
2022-07-25T18:03:47.412Z,0.95
2022-07-25T18:06:15.530Z,0.93
2022-07-25T18:08:43.577Z,1.10
2022-07-25T18:11:13.016Z,1.50
2022-07-25T18:13:41.366Z,1.25
2022-07-25T18:16:11.626Z,1.17
2022-07-25T18:18:40.790Z,1.10
2022-07-25T18:21:08.833Z,1.20
2022-07-25T18:23:36.937Z,1.40
2022-07-25T18:26:05.079Z,1.00
2022-07-25T18:28:34.502Z,1.20
2022-07-25T18:31:02.595Z,0.93
2022-07-25T18:33:30.658Z,1.77
2022-07-25T18:36:06.943Z,1.10
2022-07-25T18:38:36.513Z,1.00
2022-07-25T18:41:28.193Z,0.95
2022-07-25T18:43:54.872Z,0.82
2022-07-25T18:46:23.517Z,1.10
2022-07-25T18:48:52.251Z,0.70
2022-07-25T18:51:21.799Z,1.25
2022-07-25T18:53:49.815Z,1.10
2022-07-25T18:56:18.466Z,1.10
2022-07-25T18:58:46.844Z,0.93
2022-07-25T19:01:16.334Z,0.80
2022-07-25T19:03:44.393Z,1.60
2022-07-25T19:06:12.860Z,1.42
2022-07-25T19:08:43.799Z,0.65
2022-07-25T19:11:11.832Z,0.80
2022-07-25T19:13:49.574Z,0.52
2022-07-25T19:16:20.532Z,0.90
2022-07-25T19:18:49.246Z,0.50
2022-07-25T19:21:21.935Z,0.75
2022-07-25T19:23:53.040Z,0.70
2022-07-25T19:26:22.286Z,0.60
2022-07-25T19:28:50.965Z,0.70
2022-07-25T19:31:22.839Z,1.10
2022-07-25T19:33:52.663Z,1.00
2022-07-25T19:36:22.817Z,0.63
2022-07-25T19:38:50.867Z,0.60
2022-07-25T19:41:18.924Z,0.68
2022-07-25T19:43:47.032Z,0.60
2022-07-25T19:46:15.205Z,0.77
2022-07-25T19:48:44.742Z,0.70
2022-07-25T19:51:14.661Z,0.77
2022-07-25T19:53:42.690Z,0.70
2022-07-25T19:56:13.455Z,0.63
2022-07-25T19:58:45.068Z,0.90
2022-07-25T20:01:18.706Z,0.50
2022-07-25T20:03:48.137Z,0.68
2022-07-25T20:06:16.553Z,0.90
2022-07-25T20:08:44.580Z,0.80
2022-07-25T20:11:12.596Z,0.80
2022-07-25T20:13:41.164Z,0.90
2022-07-25T20:16:09.435Z,0.70
2022-07-25T20:18:37.714Z,0.82
2022-07-25T20:21:07.937Z,0.50
2022-07-25T20:23:37.859Z,0.60
2022-07-25T20:26:10.411Z,0.60
2022-07-25T20:28:39.182Z,0.95
2022-07-25T20:31:07.488Z,0.90
2022-07-25T20:33:35.755Z,0.80
2022-07-25T20:36:04.079Z,0.93
2022-07-25T20:38:33.513Z,0.55
2022-07-25T20:41:01.770Z,0.80
2022-07-25T20:43:31.095Z,0.88
2022-07-25T20:45:59.211Z,0.98
2022-07-25T20:48:27.459Z,0.77
2022-07-25T20:50:55.834Z,1.10
2022-07-25T20:53:24.655Z,1.00
2022-07-25T20:55:54.375Z,0.98
2022-07-25T20:58:22.371Z,0.80
2022-07-25T21:00:50.483Z,0.80
2022-07-25T21:03:20.935Z,1.05
2022-07-25T21:05:48.951Z,0.90
2022-07-25T21:08:16.971Z,0.90
2022-07-25T21:10:44.977Z,0.85
2022-07-25T21:13:14.319Z,0.80
2022-07-25T21:15:46.466Z,0.80
2022-07-25T21:18:14.509Z,0.80
2022-07-25T21:20:42.879Z,0.80
2022-07-25T21:23:11.632Z,0.82
2022-07-25T21:25:39.785Z,0.98
2022-07-25T21:28:08.037Z,0.88
2022-07-25T21:30:37.553Z,0.80
2022-07-25T21:33:06.145Z,0.68
2022-07-25T21:35:49.352Z,0.77
2022-07-25T21:38:26.977Z,0.90
2022-07-25T21:40:56.478Z,1.08
2022-07-25T21:43:24.884Z,1.05
2022-07-25T21:45:54.484Z,0.90
2022-07-25T21:48:43.003Z,1.00
2022-07-25T21:51:14.072Z,0.80
2022-07-25T21:53:52.467Z,0.80
2022-07-25T21:56:20.929Z,1.17
2022-07-25T21:58:49.001Z,1.10
2022-07-25T22:01:20.417Z,1.15
2022-07-25T22:03:48.817Z,1.27
2022-07-25T22:06:17.112Z,0.77
2022-07-25T22:08:45.148Z,0.73
2022-07-25T22:11:38.102Z,0.77
2022-07-25T22:14:04.116Z,0.80
2022-07-25T22:16:33.512Z,0.80
2022-07-25T22:19:01.628Z,0.90
2022-07-25T22:21:29.695Z,1.10
2022-07-25T22:23:59.650Z,0.80
2022-07-25T22:26:30.325Z,0.90
2022-07-25T22:28:58.385Z,1.05
2022-07-25T22:31:28.411Z,1.60
2022-07-25T22:33:57.942Z,0.77
2022-07-25T22:36:25.920Z,1.17
2022-07-25T22:38:53.948Z,0.88
2022-07-25T22:41:21.989Z,1.10
2022-07-25T22:43:57.788Z,0.90
2022-07-25T22:46:29.288Z,0.80
2022-07-25T22:49:02.737Z,1.00
2022-07-25T22:51:31.348Z,1.00
2022-07-25T22:54:00.423Z,0.70
2022-07-25T22:56:30.594Z,1.10
2022-07-25T22:58:58.837Z,1.20
2022-07-25T23:01:27.435Z,1.23
2022-07-25T23:03:55.522Z,1.20
2022-07-25T23:06:25.038Z,1.00
2022-07-25T23:08:53.061Z,1.15
2022-07-25T23:11:21.108Z,0.70
2022-07-25T23:13:49.224Z,1.17
2022-07-25T23:16:18.501Z,1.08
2022-07-25T23:18:46.576Z,0.88
2022-07-25T23:21:14.602Z,1.00
2022-07-25T23:23:43.984Z,1.00
2022-07-25T23:26:12.089Z,1.98
2022-07-25T23:28:40.356Z,1.58
2022-07-25T23:31:08.492Z,0.88
2022-07-25T23:33:36.610Z,1.58
2022-07-25T23:36:04.952Z,1.15
2022-07-25T23:38:32.937Z,0.68
2022-07-25T23:41:02.293Z,0.93
2022-07-25T23:43:57.759Z,0.75
2022-07-25T23:46:27.631Z,1.00
2022-07-25T23:48:57.357Z,1.10
2022-07-25T23:51:25.464Z,1.08
2022-07-25T23:53:53.580Z,1.10
2022-07-25T23:56:22.982Z,1.20
2022-07-25T23:58:51.158Z,1.02
